메인 페이지
METAR-TAF:

METAR-TAF

공항 :

두랑고 주, 멕시코

위도: 24-08N, 경도: 104-32W, 고도: 1857m

현재 날씨관측

예보는 10 시간 31분 전, 00:40시(UTC)에 발표되었습니다.
남남서6kt
온도 31°C
습도 12%
기압 1022 hPa
시정: 19.3km
고도 4000ft 상공 구름 보통
고도 8000ft 상공 구름 많음
고도 22000ft 상공 구름 많음

METAR: MMDO 300040Z 20006KT 12SM SCT040 BKN080 BKN220 31/M02 A3018 RMK 8/572

시각: 06:11 (11:11 UTC)

예보

예보는 5 시간 55분 전, 05:16시(UTC)에 발표되었습니다.
예보 대상 시간: 30일 06시부터 31일 06시까지 (UTC)
남남서5kt
시정: 10km
고도 4000ft 상공 구름 보통
고도 10000ft 상공 구름 보통
30일 1000시부터 (UTC)
kt
시정: 10km
맑음
30일 1500시부터 (UTC)
5kt
시정: 10km
맑음
일시적
30일 20시부터 30일 24시까지 (UTC)
남서15kt, 순간 최대 풍속 25kt
고도 3500ft 상공 구름 보통
31일 0200시부터 (UTC)
kt
시정: 10km
고도 10000ft 상공 구름 보통
고도 20000ft 상공 구름 보통

TAF: MMDO 300516Z 3006/3106 20005KT P6SM SCT040 SCT100 FM301000 00000KT P6SM SKC FM301500 28005KT P6SM SKC TEMPO 3020/3024 22015G25KT SCT035 FM310200 00000KT P6SM SCT100 SCT200

4,000개 이상의 공항 관측 자료 및 예보 (METAR 및 TAF 보고).

지도상에서 검색 가능한 기상관측소가 노란 점과 빨간 점으로 표시되어 있습니다.

기상관측소 명을 보려면 표시 위로 마우스를 이동하세요.

날씨 관측과 예보를 보려면 클릭하세요.

지도 변경 : 확대하려면 엑스 표시가 있는 녹색 버튼, 축소하려면 빼기 표시가 있는 녹색 버튼, 다음 페이지의 지도를 보려면 녹색 화살표를 클릭하세요.


METAR-TAF: